Current Conditions
Partly Cloudy
Conditions



Pressure
1018.92 (hPa) - 30.09 (inHG)
Visibility

0.0 (km) - 0.0 (miles)
   Temperature
19  °C
66°F
17  °C
Dewpoint
88  %
 Humidity
   Wind Speed
5  km/h
3  kts
3  mph
1.3  m/s
   Wind Direction
 70°
East North
East
   Airport Data
LSMM
Location Meiringen Airport 6 km (3.73 mi)
Metar :LSMM 112050Z AUTO 07003KT 9999NDV FEW190 19/17 Q1019 RMK
Tue 11th August 22:50 pm
   Raw Metar Info
Raw METAR is the most common format in the world for the transmission of observational weather data. It is highly standardized through the International Civil Aviation Organization (ICAO), which allows it to be understood throughout most of the world.
   API Info
Data Provided by
https://www.checkwx.com/weather/LSMM
   © Info
CSS/SVG/PHP scripts were developed by weather34.com for use in the weather34 template © 2015-2020

Guide Info provided by Metar-Wikipedia